createdAt,value
2023-04-18T00:01:38.408Z,72.01
2023-04-18T00:04:05.608Z,72.23
2023-04-18T00:06:32.731Z,72.60
2023-04-18T00:08:59.414Z,72.13
2023-04-18T00:11:26.180Z,71.86
2023-04-18T00:13:52.961Z,71.58
2023-04-18T00:16:19.746Z,72.05
2023-04-18T00:18:48.205Z,71.69
2023-04-18T00:21:16.765Z,72.21
2023-04-18T00:23:43.484Z,71.18
2023-04-18T00:26:10.155Z,71.28
2023-04-18T00:28:36.977Z,70.35
2023-04-18T00:31:03.776Z,70.83
2023-04-18T00:33:30.505Z,70.08
2023-04-18T00:35:57.271Z,70.94
2023-04-18T00:38:23.958Z,70.61
2023-04-18T00:40:50.904Z,70.47
2023-04-18T00:43:17.680Z,70.57
2023-04-18T00:45:44.524Z,70.75
2023-04-18T00:48:11.504Z,70.31
2023-04-18T00:50:38.554Z,70.50
2023-04-18T00:53:05.783Z,70.27
2023-04-18T00:55:32.547Z,70.17
2023-04-18T00:57:59.257Z,69.82
2023-04-18T01:00:26.010Z,70.11
2023-04-18T01:02:54.049Z,69.27
2023-04-18T01:05:24.124Z,69.00
2023-04-18T01:07:52.070Z,69.13
2023-04-18T01:10:18.988Z,69.83
2023-04-18T01:12:45.805Z,69.74
2023-04-18T01:15:12.546Z,69.76
2023-04-18T01:17:39.753Z,69.24
2023-04-18T01:20:07.267Z,69.43
2023-04-18T01:22:34.012Z,69.66
2023-04-18T01:25:00.792Z,70.62
2023-04-18T01:27:27.491Z,69.53
2023-04-18T01:29:54.253Z,69.39
2023-04-18T01:32:22.356Z,69.18
2023-04-18T01:34:49.148Z,69.06
2023-04-18T01:37:15.894Z,69.07
2023-04-18T01:39:42.587Z,69.04
2023-04-18T01:42:09.415Z,69.31
2023-04-18T01:44:36.211Z,68.60
2023-04-18T01:47:03.100Z,68.74
2023-04-18T01:49:29.941Z,68.66
2023-04-18T01:51:56.689Z,68.50
2023-04-18T01:54:23.519Z,69.77
2023-04-18T01:56:50.195Z,68.66
2023-04-18T01:59:16.969Z,68.52
2023-04-18T02:01:43.714Z,67.88
2023-04-18T02:04:10.672Z,67.67
2023-04-18T02:06:37.428Z,67.81
2023-04-18T02:09:04.107Z,68.07
2023-04-18T02:11:30.877Z,67.81
2023-04-18T02:13:59.539Z,67.98
2023-04-18T02:16:26.512Z,67.97
2023-04-18T02:18:53.525Z,68.30
2023-04-18T02:21:21.841Z,68.36
2023-04-18T02:23:48.760Z,68.12
2023-04-18T02:26:15.510Z,67.92
2023-04-18T02:28:42.180Z,68.61
2023-04-18T02:31:14.478Z,68.24
2023-04-18T02:33:47.227Z,68.46
2023-04-18T02:36:14.004Z,68.23
2023-04-18T02:38:40.733Z,67.83
2023-04-18T02:41:07.784Z,67.78
2023-04-18T02:43:34.549Z,68.24
2023-04-18T02:46:01.317Z,68.78
2023-04-18T02:48:28.148Z,67.85
2023-04-18T02:51:03.258Z,68.26
2023-04-18T02:53:30.071Z,67.65
2023-04-18T02:55:56.877Z,67.94
2023-04-18T02:58:23.626Z,67.95
2023-04-18T03:00:53.012Z,68.43
2023-04-18T03:03:19.904Z,68.21
2023-04-18T03:05:46.676Z,68.27
2023-04-18T03:08:13.347Z,67.69
2023-04-18T03:10:40.158Z,68.04
2023-04-18T03:13:06.887Z,68.21
2023-04-18T03:15:33.678Z,68.03
2023-04-18T03:18:00.479Z,68.14
2023-04-18T03:20:27.212Z,68.02
2023-04-18T03:22:53.942Z,68.20
2023-04-18T03:25:20.620Z,68.32
2023-04-18T03:27:47.353Z,67.92
2023-04-18T03:30:14.157Z,67.62
2023-04-18T03:32:42.159Z,67.61
2023-04-18T03:35:09.492Z,68.01
2023-04-18T03:37:36.237Z,67.45
2023-04-18T03:40:05.364Z,67.15
2023-04-18T03:42:32.198Z,67.41
2023-04-18T03:44:58.868Z,67.08
2023-04-18T03:47:25.649Z,67.38
2023-04-18T03:49:54.227Z,67.53
2023-04-18T03:52:21.054Z,67.97
2023-04-18T03:54:47.778Z,67.83
2023-04-18T03:57:14.774Z,68.09
2023-04-18T03:59:41.811Z,69.09
2023-04-18T04:02:08.615Z,68.90
2023-04-18T04:04:35.468Z,69.06
2023-04-18T04:07:02.245Z,69.32
2023-04-18T04:09:28.983Z,69.08
2023-04-18T04:11:55.689Z,69.69
2023-04-18T04:14:22.896Z,69.34
2023-04-18T04:16:49.875Z,69.38
2023-04-18T04:19:16.720Z,70.38
2023-04-18T04:21:43.435Z,69.28
2023-04-18T04:24:10.121Z,69.47
2023-04-18T04:26:36.872Z,68.35
2023-04-18T04:29:03.745Z,70.14
2023-04-18T04:31:31.834Z,69.47
2023-04-18T04:33:58.593Z,69.89
2023-04-18T04:36:27.224Z,69.44
2023-04-18T04:38:54.029Z,71.03
2023-04-18T04:41:22.377Z,70.22
2023-04-18T04:43:49.849Z,69.80
2023-04-18T04:46:19.899Z,69.43
2023-04-18T04:48:46.936Z,69.21
2023-04-18T04:51:13.682Z,69.52
2023-04-18T04:53:40.460Z,69.11
2023-04-18T04:56:07.544Z,69.10
2023-04-18T04:58:34.235Z,69.04
2023-04-18T05:01:01.023Z,68.35
2023-04-18T05:03:27.894Z,68.37
2023-04-18T05:05:54.747Z,68.97
2023-04-18T05:08:21.515Z,67.99
2023-04-18T05:10:49.726Z,68.80
2023-04-18T05:13:16.795Z,68.19
2023-04-18T05:15:45.598Z,68.64
2023-04-18T05:18:14.153Z,67.69
2023-04-18T05:20:40.968Z,67.09
2023-04-18T05:23:07.704Z,66.74
2023-04-18T05:25:34.468Z,66.70
2023-04-18T05:28:01.351Z,66.90
2023-04-18T05:30:28.133Z,66.85
2023-04-18T05:32:54.939Z,66.64
2023-04-18T05:35:21.714Z,67.23
2023-04-18T05:37:48.656Z,65.71
2023-04-18T05:40:15.669Z,64.75
2023-04-18T05:42:42.429Z,63.57
2023-04-18T05:45:09.455Z,63.31
2023-04-18T05:47:36.188Z,63.21
2023-04-18T05:50:03.517Z,62.83
2023-04-18T05:52:30.419Z,63.44
2023-04-18T05:54:57.163Z,61.93
2023-04-18T05:57:23.965Z,60.75
2023-04-18T05:59:50.673Z,63.80
2023-04-18T06:02:17.498Z,59.98
2023-04-18T06:04:45.290Z,58.86
2023-04-18T06:07:12.537Z,60.22
2023-04-18T06:09:39.363Z,59.26
2023-04-18T06:12:06.140Z,58.73
2023-04-18T06:14:32.935Z,59.20
2023-04-18T06:16:59.796Z,59.61
2023-04-18T06:19:26.481Z,60.06
2023-04-18T06:21:53.468Z,59.53
2023-04-18T06:24:20.723Z,61.56
2023-04-18T06:26:47.674Z,59.78
2023-04-18T06:29:14.587Z,60.21
2023-04-18T06:31:46.130Z,60.60
2023-04-18T06:34:13.181Z,61.20
2023-04-18T06:36:40.174Z,61.35
2023-04-18T06:39:06.902Z,61.47
2023-04-18T06:41:33.855Z,61.13
2023-04-18T06:44:04.180Z,61.70
2023-04-18T06:46:32.529Z,61.98
2023-04-18T06:48:59.713Z,62.11
2023-04-18T06:51:27.539Z,61.44
2023-04-18T06:53:54.379Z,62.40
2023-04-18T06:56:21.618Z,61.77
2023-04-18T06:58:49.314Z,60.57
2023-04-18T07:01:16.127Z,60.25
2023-04-18T07:03:42.960Z,60.00
2023-04-18T07:06:10.937Z,60.11
2023-04-18T07:08:37.908Z,60.30
2023-04-18T07:11:06.098Z,60.22
2023-04-18T07:13:32.863Z,60.23
2023-04-18T07:15:59.772Z,60.01
2023-04-18T07:18:36.724Z,60.05
2023-04-18T07:22:20.596Z,60.03
